Time;durP1;ratioP1;P1;durP2;ratioP2;P2;SDS_P1;SDS_P2;PMS_P1;PMS_P2;Temp;Humidity;BMP_temperature;BMP_pressure;BME280_temperature;BME280_humidity;BME280_pressure;Samples;Min_cycle;Max_cycle;Signal;HPM_P1;HPM_P2
2023/10/08 00:00:55;;;;;;;57.45;31.52;;;;;;;21.40;61.72;101926.84;6051510;23;20269;-80
2023/10/08 00:03:32;;;;;;;49.83;33.22;;;;;;;21.50;61.67;101929.31;6043006;23;20419;-80
2023/10/08 00:06:12;;;;;;;50.85;33.65;;;;;;;21.60;61.71;101953.41;6012145;23;20026;-82
2023/10/08 00:08:44;;;;;;;49.55;32.72;;;;;;;21.50;61.61;101932.84;6045028;23;20022;-81
2023/10/08 00:11:18;;;;;;;48.35;32.58;;;;;;;21.60;61.74;101942.63;6057503;23;20065;-80
2023/10/08 00:13:55;;;;;;;53.72;33.05;;;;;;;21.54;61.84;101942.31;6084457;23;20031;-81
2023/10/08 00:16:23;;;;;;;59.80;32.92;;;;;;;21.46;61.97;101936.94;6035443;23;20019;-81
2023/10/08 00:18:51;;;;;;;53.40;31.48;;;;;;;21.05;62.02;101868.72;6050448;23;20038;-80
2023/10/08 00:21:26;;;;;;;52.72;32.20;;;;;;;21.34;62.06;101914.00;6055770;23;20019;-80
2023/10/08 00:23:57;;;;;;;55.75;31.73;;;;;;;21.20;62.12;101907.47;6068163;23;20556;-79
2023/10/08 00:26:30;;;;;;;46.45;30.40;;;;;;;20.92;62.26;101853.06;6058191;23;20081;-79
2023/10/08 00:29:15;;;;;;;45.47;31.20;;;;;;;21.48;62.54;101945.72;6052862;23;20023;-79
2023/10/08 00:31:49;;;;;;;50.47;30.40;;;;;;;21.44;62.57;101941.69;6074091;23;20022;-79
2023/10/08 00:34:19;;;;;;;49.28;31.15;;;;;;;21.38;62.84;101949.59;6022415;23;20961;-79
2023/10/08 00:36:47;;;;;;;52.63;32.05;;;;;;;21.30;62.71;101943.22;6036732;23;20251;-77
2023/10/08 00:39:22;;;;;;;52.08;32.70;;;;;;;21.34;62.17;101935.63;6054971;23;20413;-79
2023/10/08 00:41:58;;;;;;;51.90;33.15;;;;;;;21.40;61.86;101937.63;6051847;23;20027;-78
2023/10/08 00:44:31;;;;;;;52.63;32.95;;;;;;;21.38;62.46;101939.63;6023159;23;20702;-80
2023/10/08 00:47:10;;;;;;;63.03;34.22;;;;;;;21.31;62.84;101938.66;6012575;23;20081;-80
2023/10/08 00:49:54;;;;;;;54.92;33.78;;;;;;;21.21;62.62;101929.91;6016232;23;20791;-78
2023/10/08 00:52:30;;;;;;;54.08;33.88;;;;;;;21.16;62.84;101924.19;6054381;23;20101;-77
2023/10/08 00:57:36;;;;;;;58.42;34.63;;;;;;;20.98;63.47;101911.78;6029020;23;20026;-80
2023/10/08 01:00:15;;;;;;;54.75;34.67;;;;;;;21.08;63.21;101931.31;6040486;23;20037;-80
2023/10/08 01:02:50;;;;;;;57.65;35.28;;;;;;;20.77;63.36;101879.09;6046983;23;20421;-80
2023/10/08 01:05:25;;;;;;;50.75;31.92;;;;;;;21.06;62.93;101927.94;6048987;23;20018;-80
2023/10/08 01:07:58;;;;;;;52.17;33.20;;;;;;;20.96;63.34;101940.78;6051551;23;20533;-81
2023/10/08 01:10:25;;;;;;;54.60;35.03;;;;;;;20.89;63.84;101926.31;6022365;23;20200;-78
2023/10/08 01:15:28;;;;;;;55.97;34.47;;;;;;;20.88;63.97;101938.13;6049597;23;20022;-80
2023/10/08 01:18:00;;;;;;;55.53;35.08;;;;;;;20.85;64.02;101943.84;6037010;23;20018;-80
2023/10/08 01:20:52;;;;;;;51.90;34.13;;;;;;;20.75;63.75;101932.41;6037186;23;20026;-79
2023/10/08 01:23:28;;;;;;;53.90;34.25;;;;;;;20.86;63.91;101949.09;6036872;23;20033;-79
2023/10/08 01:26:11;;;;;;;54.78;34.65;;;;;;;20.77;63.89;101949.28;6004752;23;20457;-81
2023/10/08 01:28:45;;;;;;;57.10;35.10;;;;;;;20.50;64.21;101900.03;6030465;23;20029;-81
2023/10/08 01:31:15;;;;;;;57.78;34.67;;;;;;;20.67;64.26;101927.88;6032759;23;20054;-80
2023/10/08 01:33:50;;;;;;;50.50;33.50;;;;;;;20.67;64.20;101935.97;6037028;23;20516;-80
2023/10/08 01:36:23;;;;;;;48.35;33.70;;;;;;;20.66;64.49;101945.91;6066328;23;20462;-80
2023/10/08 01:38:50;;;;;;;52.88;35.03;;;;;;;20.53;64.72;101923.97;6038181;23;20211;-80
2023/10/08 01:41:19;;;;;;;54.38;33.55;;;;;;;20.64;64.88;101934.44;6034980;23;20226;-81
2023/10/08 01:43:52;;;;;;;50.33;33.28;;;;;;;20.56;65.03;101929.06;6049250;23;20254;-80
2023/10/08 01:46:26;;;;;;;53.72;33.20;;;;;;;20.27;65.03;101887.25;6025414;23;20081;-79
2023/10/08 01:49:00;;;;;;;52.47;33.85;;;;;;;20.38;65.69;101926.50;6017661;23;20030;-81
2023/10/08 01:51:44;;;;;;;59.30;34.22;;;;;;;20.32;66.03;101920.97;6052767;23;20065;-80
2023/10/08 01:54:21;;;;;;;60.08;35.80;;;;;;;20.34;66.16;101930.56;6038843;23;20401;-80
2023/10/08 01:56:56;;;;;;;54.67;34.95;;;;;;;20.30;66.23;101918.41;6018620;23;20018;-79
2023/10/08 01:59:24;;;;;;;60.03;35.47;;;;;;;20.05;66.14;101888.75;6021173;23;20026;-80
2023/10/08 02:01:55;;;;;;;55.47;34.70;;;;;;;20.31;66.02;101927.34;6058477;23;20019;-80
2023/10/08 02:04:22;;;;;;;57.80;35.15;;;;;;;20.30;66.33;101931.06;6059082;23;20057;-79
2023/10/08 02:06:55;;;;;;;51.55;33.38;;;;;;;20.24;66.64;101919.94;6044796;23;20323;-80
2023/10/08 02:09:26;;;;;;;56.55;34.67;;;;;;;20.26;66.41;101920.59;6032889;23;20030;-80
2023/10/08 02:11:54;;;;;;;53.45;33.70;;;;;;;20.01;66.51;101876.63;6060933;23;20029;-79
2023/10/08 02:14:31;;;;;;;55.38;34.42;;;;;;;20.11;66.68;101903.41;6057369;23;20058;-80
2023/10/08 02:17:04;;;;;;;58.65;35.85;;;;;;;20.16;66.67;101911.00;6046704;23;20085;-79
2023/10/08 02:19:30;;;;;;;57.85;35.30;;;;;;;20.14;66.79;101916.53;6047215;23;20034;-80
2023/10/08 02:21:58;;;;;;;45.75;33.13;;;;;;;19.83;66.90;101874.09;6056255;23;20018;-79
2023/10/08 02:24:25;;;;;;;52.13;33.78;;;;;;;20.07;66.66;101910.13;6044276;23;20019;-81
2023/10/08 02:27:02;;;;;;;50.45;33.40;;;;;;;19.75;66.57;101848.97;6050491;23;20022;-80
2023/10/08 02:29:30;;;;;;;48.67;33.58;;;;;;;20.03;66.63;101889.94;6061587;23;20025;-79
2023/10/08 02:31:58;;;;;;;57.28;34.65;;;;;;;19.96;66.42;101867.34;6046358;23;20054;-79
2023/10/08 02:34:26;;;;;;;54.13;33.63;;;;;;;20.10;66.61;101901.75;6056105;23;20097;-79
2023/10/08 02:36:56;;;;;;;51.75;32.83;;;;;;;19.97;66.77;101893.28;6048155;23;20026;-79
2023/10/08 02:39:26;;;;;;;49.60;32.22;;;;;;;19.82;67.17;101871.53;6066679;23;20175;-79
2023/10/08 02:41:59;;;;;;;63.95;33.45;;;;;;;20.00;67.36;101909.13;6039316;23;20274;-79
2023/10/08 02:44:27;;;;;;;55.33;34.40;;;;;;;20.00;67.42;101906.41;6068459;23;20081;-78
2023/10/08 02:46:54;;;;;;;50.08;31.73;;;;;;;19.59;67.30;101845.22;6040052;23;20050;-79
2023/10/08 02:49:25;;;;;;;50.30;32.47;;;;;;;20.01;67.58;101902.72;6055899;23;20025;-79
2023/10/08 02:51:58;;;;;;;50.33;33.10;;;;;;;19.76;67.39;101856.06;6057867;23;20061;-80
2023/10/08 02:54:36;;;;;;;56.50;33.83;;;;;;;19.91;66.97;101858.94;6045415;23;20030;-79
2023/10/08 02:57:04;;;;;;;53.88;32.50;;;;;;;19.96;66.94;101884.38;6049047;23;20018;-78
2023/10/08 02:59:47;;;;;;;49.67;32.00;;;;;;;19.89;67.30;101887.91;6049747;23;20105;-79
2023/10/08 03:02:18;;;;;;;52.13;32.58;;;;;;;19.93;67.47;101908.09;6039491;23;20026;-80
2023/10/08 03:04:51;;;;;;;50.17;30.23;;;;;;;19.73;67.83;101878.75;6031460;23;20049;-80
2023/10/08 03:07:31;;;;;;;50.65;32.58;;;;;;;19.80;67.93;101890.56;6037082;23;20081;-80
2023/10/08 03:10:16;;;;;;;51.45;32.47;;;;;;;19.69;68.02;101880.13;6042660;23;20022;-80
2023/10/08 03:12:46;;;;;;;;;;;;;;;19.80;68.18;101914.81;6045636;23;20022;-79
2023/10/08 03:15:28;;;;;;;48.50;32.30;;;;;;;19.64;67.56;101896.75;6049798;23;20344;-79
2023/10/08 03:18:09;;;;;;;51.40;32.58;;;;;;;19.77;67.79;101895.47;6045830;23;20022;-79
2023/10/08 03:20:45;;;;;;;54.08;32.42;;;;;;;19.98;67.36;101911.16;6046063;23;20354;-79
2023/10/08 03:23:25;;;;;;;49.30;32.33;;;;;;;19.88;67.55;101903.22;6052190;23;20022;-78
2023/10/08 03:26:32;;;;;;;46.95;29.85;;;;;;;19.77;67.58;101880.13;6025600;23;20386;-79
2023/10/08 03:29:14;;;;;;;59.90;33.28;;;;;;;19.79;67.99;101907.75;6022017;23;20362;-80
2023/10/08 03:34:18;;;;;;;51.00;32.75;;;;;;;19.57;68.67;101884.09;6067290;23;20026;-81
2023/10/08 03:36:50;;;;;;;50.90;30.92;;;;;;;19.58;68.86;101901.94;6038659;23;20037;-80
2023/10/08 03:39:38;;;;;;;49.08;32.25;;;;;;;19.47;68.70;101868.09;6042121;23;20026;-80
2023/10/08 03:42:10;;;;;;;51.13;32.97;;;;;;;19.39;68.78;101863.53;6021181;23;20254;-80
2023/10/08 03:44:37;;;;;;;42.90;31.40;;;;;;;19.60;68.61;101898.06;6015944;23;20018;-79
2023/10/08 03:47:11;;;;;;;50.53;32.95;;;;;;;19.56;68.93;101899.41;6012188;23;20058;-79
2023/10/08 03:49:45;;;;;;;46.63;30.58;;;;;;;19.42;69.03;101865.88;6044064;23;20058;-79
2023/10/08 03:52:26;;;;;;;50.20;31.38;;;;;;;19.63;68.38;101889.66;6029416;23;20110;-79
2023/10/08 03:55:13;;;;;;;45.47;31.92;;;;;;;19.72;68.38;101901.34;6036898;23;20468;-78
2023/10/08 03:57:44;;;;;;;53.78;33.58;;;;;;;19.55;68.60;101864.56;6024741;23;20444;-80
2023/10/08 04:00:28;;;;;;;49.65;31.48;;;;;;;19.60;68.51;101883.75;6027178;23;20026;-79
2023/10/08 04:03:00;;;;;;;45.33;31.90;;;;;;;19.60;69.10;101890.00;6041871;23;20490;-79
2023/10/08 04:05:32;;;;;;;50.17;32.55;;;;;;;19.64;69.03;101890.53;6039688;23;20019;-79
2023/10/08 04:11:30;;;;;;;;;;;;;;;19.59;69.29;101884.78;5970036;23;20227;-79
2023/10/08 04:14:02;;;;;;;42.33;29.23;;;;;;;19.61;69.24;101882.75;6024808;23;19917;-79
2023/10/08 04:16:30;;;;;;;47.05;31.88;;;;;;;19.45;69.40;101858.50;6038703;23;20125;-80
2023/10/08 04:18:57;;;;;;;49.50;32.00;;;;;;;19.45;69.31;101862.03;6018964;23;20032;-80
2023/10/08 04:21:27;;;;;;;50.08;32.72;;;;;;;19.43;69.60;101867.56;6041033;23;20029;-80
2023/10/08 04:23:57;;;;;;;50.87;33.33;;;;;;;19.23;70.03;101844.63;6050518;23;20280;-80
2023/10/08 04:26:25;;;;;;;49.30;34.20;;;;;;;19.08;69.73;101822.00;6047830;23;20402;-80
2023/10/08 04:28:58;;;;;;;56.33;33.97;;;;;;;19.46;69.48;101877.16;6039367;23;20152;-80
2023/10/08 04:31:36;;;;;;;51.13;33.33;;;;;;;19.51;69.97;101895.53;6064516;23;20329;-80
2023/10/08 04:34:22;;;;;;;52.70;33.95;;;;;;;19.19;69.60;101832.47;6037178;23;20307;-80
2023/10/08 04:37:00;;;;;;;48.13;34.08;;;;;;;19.46;70.03;101868.25;6059081;23;20030;-80
2023/10/08 04:39:32;;;;;;;51.97;35.00;;;;;;;19.46;69.81;101882.53;6032388;23;20018;-80
2023/10/08 04:42:13;;;;;;;50.35;34.50;;;;;;;19.51;70.27;101876.66;6059043;23;20058;-81
2023/10/08 04:44:41;;;;;;;53.08;36.50;;;;;;;19.14;69.96;101811.44;6043626;23;20018;-81
2023/10/08 04:47:31;;;;;;;56.30;35.17;;;;;;;19.52;70.01;101873.81;6033968;23;20053;-79
2023/10/08 04:50:06;;;;;;;62.95;37.88;;;;;;;19.53;69.82;101874.66;6041702;23;20378;-79
2023/10/08 04:52:45;;;;;;;55.00;36.78;;;;;;;19.40;69.95;101857.13;6011871;23;20388;-80
2023/10/08 04:55:20;;;;;;;61.67;37.10;;;;;;;19.49;69.65;101882.25;6022937;23;21021;-79
2023/10/08 04:57:49;;;;;;;54.83;36.75;;;;;;;19.30;69.84;101844.81;6032579;23;20380;-79
2023/10/08 05:00:26;;;;;;;56.67;35.28;;;;;;;19.36;70.17;101861.13;6047322;23;20109;-80
2023/10/08 05:03:03;;;;;;;53.85;36.58;;;;;;;19.52;70.09;101881.06;6059353;23;20026;-81
2023/10/08 05:05:51;;;;;;;55.90;36.75;;;;;;;19.29;69.96;101854.72;6040939;23;20380;-80
2023/10/08 05:08:28;;;;;;;60.10;36.72;;;;;;;19.17;69.90;101835.31;6063725;23;20034;-80
2023/10/08 05:11:01;;;;;;;58.25;36.70;;;;;;;19.40;70.04;101870.59;6041277;23;20366;-80
2023/10/08 05:13:34;;;;;;;59.78;37.53;;;;;;;19.45;69.90;101886.25;6039446;23;20082;-79
2023/10/08 05:16:35;;;;;;;58.30;37.13;;;;;;;19.43;70.18;101899.88;6015528;23;20436;-79
2023/10/08 05:22:01;;;;;;;62.17;37.88;;;;;;;19.52;70.01;101900.75;6051719;23;20019;-80
2023/10/08 05:24:38;;;;;;;58.10;36.90;;;;;;;19.50;70.41;101891.16;6042972;23;20046;-80
2023/10/08 05:27:37;;;;;;;55.97;35.70;;;;;;;19.41;70.07;101880.34;6065386;23;20054;-79
2023/10/08 05:30:16;;;;;;;60.88;38.13;;;;;;;19.20;69.98;101851.19;6059809;23;20018;-79
2023/10/08 05:33:06;;;;;;;59.20;37.60;;;;;;;19.37;70.19;101884.38;6058042;23;20024;-79
2023/10/08 05:46:39;;;;;;;55.67;36.65;;;;;;;19.52;70.18;101886.44;6034044;23;20581;-79
2023/10/08 05:59:38;;;;;;;56.22;38.55;;;;;;;19.67;70.33;101910.91;6051971;23;20022;-80
2023/10/08 06:03:09;;;;;;;61.30;38.10;;;;;;;19.49;70.04;101881.38;6056025;23;20022;-79
2023/10/08 06:05:22;;;;;;;60.15;38.22;;;;;;;19.58;70.24;101900.09;6038966;23;20448;-79
2023/10/08 06:13:06;;;;;;;61.25;39.25;;;;;;;19.68;70.38;101904.53;6061690;23;20270;-80
2023/10/08 06:18:31;;;;;;;57.30;37.60;;;;;;;19.80;70.39;101911.28;6048271;23;20046;-81
2023/10/08 06:21:23;;;;;;;66.00;40.47;;;;;;;19.89;70.23;101921.06;6053722;23;20521;-80
2023/10/08 06:23:53;;;;;;;61.22;36.95;;;;;;;20.01;70.60;101937.78;6069030;23;20435;-79
2023/10/08 06:26:25;;;;;;;57.63;36.83;;;;;;;19.98;70.22;101930.03;6055320;23;20104;-79
2023/10/08 06:28:58;;;;;;;61.30;38.72;;;;;;;20.02;70.54;101928.66;6065544;23;20027;-80
2023/10/08 06:31:26;;;;;;;55.08;36.58;;;;;;;20.08;69.26;101921.78;6065544;23;20486;-80
2023/10/08 06:33:53;;;;;;;50.05;36.72;;;;;;;20.21;68.77;101947.22;6065163;23;20377;-79
2023/10/08 06:36:24;;;;;;;63.30;38.63;;;;;;;20.18;69.09;101931.38;6074312;23;20026;-80
2023/10/08 06:38:54;;;;;;;58.97;37.15;;;;;;;20.16;69.34;101927.19;6058001;23;20284;-80
2023/10/08 06:41:33;;;;;;;62.88;37.28;;;;;;;20.30;69.11;101918.41;6031736;23;20228;-80
2023/10/08 06:44:15;;;;;;;58.63;37.65;;;;;;;20.45;69.92;101959.88;6049003;23;20381;-80
2023/10/08 06:46:48;;;;;;;57.45;36.35;;;;;;;20.47;70.07;101940.84;6050843;23;20022;-79
2023/10/08 06:49:18;;;;;;;55.38;37.78;;;;;;;20.48;70.33;101942.50;6069108;23;20391;-79
2023/10/08 06:51:48;;;;;;;66.47;43.78;;;;;;;20.53;69.72;101950.94;6070528;23;20022;-80
2023/10/08 06:54:17;;;;;;;60.42;38.13;;;;;;;20.47;69.79;101935.44;6072473;23;20022;-81
2023/10/08 06:56:53;;;;;;;67.10;40.58;;;;;;;20.64;69.55;101952.50;6076913;23;20022;-81
2023/10/08 06:59:23;;;;;;;58.70;38.20;;;;;;;20.11;69.35;101868.38;6060237;23;20293;-81
2023/10/08 07:01:51;;;;;;;58.55;37.70;;;;;;;20.76;69.34;101958.38;6043055;23;20027;-78
2023/10/08 07:04:21;;;;;;;59.75;37.03;;;;;;;20.85;68.06;101960.03;6056082;23;20335;-78
2023/10/08 07:06:53;;;;;;;56.80;36.80;;;;;;;20.89;68.77;101953.28;6055893;23;20109;-78
2023/10/08 07:09:23;;;;;;;54.35;37.83;;;;;;;20.95;68.32;101955.31;6065257;23;20050;-78
2023/10/08 07:11:54;;;;;;;56.55;38.22;;;;;;;21.02;67.70;101958.16;6063008;23;20438;-78
2023/10/08 07:14:28;;;;;;;61.67;40.72;;;;;;;21.04;67.08;101940.75;6060966;23;20078;-79
2023/10/08 07:17:01;;;;;;;55.15;36.78;;;;;;;21.03;67.85;101931.00;6053305;23;20029;-77
2023/10/08 07:19:41;;;;;;;64.03;38.10;;;;;;;21.16;68.31;101945.81;6066122;23;20380;-77
2023/10/08 07:22:21;;;;;;;58.35;37.50;;;;;;;21.21;67.36;101949.66;6073563;23;20397;-78
2023/10/08 07:24:50;;;;;;;60.35;37.05;;;;;;;21.39;65.94;101962.97;6063624;23;20050;-77
2023/10/08 07:27:21;;;;;;;60.67;36.63;;;;;;;21.14;65.26;101889.25;6052347;23;20705;-78
2023/10/08 07:29:55;;;;;;;55.15;36.28;;;;;;;21.64;65.02;101968.28;6060041;23;20026;-76
2023/10/08 07:32:25;;;;;;;56.70;36.47;;;;;;;21.61;64.50;101960.53;6063764;23;20023;-77
2023/10/08 07:34:58;;;;;;;57.97;35.78;;;;;;;21.63;64.85;101956.63;6058443;23;20049;-77
2023/10/08 07:37:26;;;;;;;54.88;35.85;;;;;;;21.77;64.25;101971.22;6071522;23;20022;-77
2023/10/08 07:39:55;;;;;;;60.25;34.80;;;;;;;21.77;64.13;101961.28;6071079;23;20458;-79
2023/10/08 07:42:22;;;;;;;63.15;35.42;;;;;;;21.71;63.92;101939.53;6051197;23;20362;-80
2023/10/08 07:44:54;;;;;;;53.83;34.15;;;;;;;21.68;63.21;101929.06;6059586;23;20073;-80
2023/10/08 07:47:22;;;;;;;60.40;35.83;;;;;;;22.06;62.65;101967.84;6055876;23;20018;-80
2023/10/08 07:49:52;;;;;;;57.95;34.90;;;;;;;22.00;62.37;101957.75;6024749;23;20246;-81
2023/10/08 07:52:19;;;;;;;52.72;35.50;;;;;;;22.10;61.91;101960.22;6058243;23;20022;-77
2023/10/08 07:54:45;;;;;;;53.67;35.47;;;;;;;22.12;62.21;101963.59;6067164;23;20411;-78
2023/10/08 07:57:17;;;;;;;59.72;36.78;;;;;;;22.18;61.83;101961.00;6063431;23;20345;-79
2023/10/08 07:59:47;;;;;;;;;;;;;;;22.22;62.08;101968.81;6071182;23;20054;-78
2023/10/08 08:02:23;;;;;;;52.25;36.25;;;;;;;22.29;61.72;101970.59;6060154;23;19921;-78
2023/10/08 08:04:52;;;;;;;52.15;34.33;;;;;;;22.38;61.81;101974.09;6074907;23;20360;-78
2023/10/08 08:07:20;;;;;;;59.28;36.15;;;;;;;22.35;61.83;101952.81;6068010;23;20338;-76
2023/10/08 08:09:52;;;;;;;60.28;37.35;;;;;;;22.37;61.09;101940.78;6070336;23;20762;-77
2023/10/08 08:12:33;;;;;;;54.00;36.22;;;;;;;22.56;60.75;101960.25;6059921;23;20014;-78
2023/10/08 08:15:14;;;;;;;51.92;33.90;;;;;;;22.34;60.97;101922.22;6057532;23;20089;-79
2023/10/08 08:17:48;;;;;;;54.55;35.10;;;;;;;22.60;60.95;101966.97;6052766;23;20034;-79
2023/10/08 08:20:21;;;;;;;53.75;34.78;;;;;;;22.68;60.79;101961.47;6063461;23;20144;-78
2023/10/08 08:22:54;;;;;;;64.82;37.40;;;;;;;22.58;60.25;101920.31;6069647;23;20529;-79
2023/10/08 08:25:42;;;;;;;52.15;34.42;;;;;;;22.83;59.89;101956.94;6064362;23;20101;-78
2023/10/08 08:28:16;;;;;;;59.40;36.03;;;;;;;23.04;59.07;101952.69;6062870;23;20073;-79
2023/10/08 08:30:48;;;;;;;58.40;34.92;;;;;;;22.99;59.27;101934.31;6063509;23;20030;-80
2023/10/08 08:33:22;;;;;;;51.65;35.30;;;;;;;23.23;58.98;101944.00;6072755;23;20018;-78
2023/10/08 08:36:00;;;;;;;59.85;35.45;;;;;;;23.16;59.48;101929.53;6045288;23;20267;-78
2023/10/08 08:38:32;;;;;;;55.88;35.25;;;;;;;23.28;59.63;101937.16;6063955;23;20171;-78
2023/10/08 08:41:07;;;;;;;55.80;36.60;;;;;;;23.35;59.51;101946.22;6062878;23;20105;-80
2023/10/08 08:43:35;;;;;;;59.38;34.83;;;;;;;23.54;58.95;101947.50;6068023;23;20026;-79
2023/10/08 08:46:10;;;;;;;60.38;38.75;;;;;;;23.68;57.88;101944.78;6065681;23;20354;-80
2023/10/08 08:48:40;;;;;;;56.47;36.50;;;;;;;22.81;57.86;101779.47;6062687;23;20085;-79
2023/10/08 08:51:14;;;;;;;58.45;37.45;;;;;;;23.92;57.32;101940.06;6074589;23;20026;-81
2023/10/08 08:53:43;;;;;;;65.60;36.15;;;;;;;24.02;57.13;101948.72;6059613;23;20097;-81
2023/10/08 08:56:12;;;;;;;59.15;35.80;;;;;;;24.02;56.45;101912.63;6064214;23;20097;-80
2023/10/08 08:58:41;;;;;;;61.15;37.13;;;;;;;24.17;55.72;101915.25;6055211;23;20230;-80
2023/10/08 09:01:13;;;;;;;59.75;36.63;;;;;;;24.30;56.41;101937.09;6044224;23;20023;-80
2023/10/08 09:03:41;;;;;;;59.45;35.38;;;;;;;23.95;56.40;101890.03;6065614;23;20315;-81
2023/10/08 09:06:08;;;;;;;67.25;36.63;;;;;;;24.41;56.10;101947.41;6053230;23;20019;-79
2023/10/08 09:08:36;;;;;;;59.03;36.38;;;;;;;24.34;56.05;101926.69;6073382;23;20730;-81
2023/10/08 09:11:08;;;;;;;61.40;37.22;;;;;;;24.73;55.25;101950.63;6094832;23;20094;-81
2023/10/08 09:13:36;;;;;;;56.40;36.17;;;;;;;24.74;55.21;101944.19;6055317;23;20050;-81
2023/10/08 09:16:16;;;;;;;57.58;37.30;;;;;;;24.60;55.58;101936.97;6079539;23;20406;-80
2023/10/08 09:18:45;;;;;;;61.63;38.23;;;;;;;24.52;55.79;101913.53;6074952;23;20294;-80
2023/10/08 09:21:22;;;;;;;60.90;36.35;;;;;;;24.82;55.73;101943.19;6063210;23;20027;-82
2023/10/08 09:23:54;;;;;;;55.72;36.88;;;;;;;24.99;55.44;101941.81;6057437;23;20019;-81
2023/10/08 09:26:29;;;;;;;56.20;37.03;;;;;;;25.08;54.82;101924.31;6063031;23;20033;-81
2023/10/08 09:29:01;;;;;;;58.35;37.47;;;;;;;25.15;55.39;101924.38;6048662;23;20458;-81
2023/10/08 09:31:35;;;;;;;58.90;37.47;;;;;;;25.23;54.76;101924.22;6063265;23;20026;-80
2023/10/08 09:34:06;;;;;;;58.53;36.67;;;;;;;24.89;54.88;101865.31;6062950;23;20493;-81
2023/10/08 09:36:33;;;;;;;55.45;36.45;;;;;;;25.37;54.13;101934.13;6067151;23;20454;-80
2023/10/08 09:39:06;;;;;;;71.28;41.92;;;;;;;24.91;54.55;101869.50;6056897;23;20390;-80
2023/10/08 09:41:40;;;;;;;64.75;41.47;;;;;;;25.06;54.32;101871.22;6051662;23;20350;-80
2023/10/08 09:44:10;;;;;;;63.33;39.73;;;;;;;25.20;54.75;101905.63;6060514;23;20471;-80
2023/10/08 09:46:42;;;;;;;61.13;39.47;;;;;;;25.36;54.70;101932.44;6075898;23;20018;-80
2023/10/08 09:49:12;;;;;;;64.95;39.13;;;;;;;25.50;53.91;101935.22;6063491;23;20026;-80
2023/10/08 09:51:40;;;;;;;71.83;41.40;;;;;;;24.94;53.92;101835.66;6060011;23;20029;-80
2023/10/08 09:54:10;;;;;;;65.32;41.70;;;;;;;25.60;53.84;101922.06;6078176;23;20586;-80
2023/10/08 09:56:39;;;;;;;67.40;42.25;;;;;;;25.55;53.87;101887.34;6046869;23;20029;-81
2023/10/08 09:59:16;;;;;;;65.13;40.97;;;;;;;25.96;52.93;101918.22;6052308;23;20085;-81
2023/10/08 10:01:53;;;;;;;67.35;40.20;;;;;;;26.01;52.58;101913.81;6054968;23;20084;-80
2023/10/08 10:04:31;;;;;;;62.28;38.70;;;;;;;25.95;52.24;101860.25;6082247;23;20098;-81
2023/10/08 10:07:09;;;;;;;66.47;39.72;;;;;;;26.47;51.78;101914.91;6042927;23;20023;-79
2023/10/08 10:09:39;;;;;;;63.30;39.47;;;;;;;26.45;51.83;101897.94;6041034;23;20085;-80
2023/10/08 10:12:09;;;;;;;68.03;39.15;;;;;;;26.74;51.01;101902.09;6057077;23;20027;-80
2023/10/08 10:14:45;;;;;;;58.33;35.97;;;;;;;26.91;51.39;101912.56;6061140;23;20384;-80
2023/10/08 10:17:20;;;;;;;60.58;36.28;;;;;;;26.56;50.62;101823.81;6054716;23;20022;-80
2023/10/08 10:20:13;;;;;;;48.92;32.25;;;;;;;27.08;50.38;101884.63;6049570;23;20102;-79
2023/10/08 10:22:43;;;;;;;58.30;34.22;;;;;;;26.96;49.08;101801.88;6046854;23;20026;-80
2023/10/08 10:25:17;;;;;;;53.35;34.90;;;;;;;27.60;48.95;101890.09;6056077;23;20028;-79
2023/10/08 10:27:51;;;;;;;50.60;33.63;;;;;;;27.90;48.31;101903.97;6041051;23;20034;-81
2023/10/08 10:30:19;;;;;;;49.33;30.27;;;;;;;28.09;46.91;101898.59;6060461;23;20022;-79
2023/10/08 10:32:54;;;;;;;43.75;30.05;;;;;;;28.28;46.23;101899.50;6050556;23;20022;-78
2023/10/08 10:35:21;;;;;;;51.70;32.10;;;;;;;28.23;45.75;101878.34;6049598;23;20421;-81
2023/10/08 10:37:55;;;;;;;44.20;28.35;;;;;;;28.30;44.99;101851.81;6048031;23;20022;-80
2023/10/08 10:40:40;;;;;;;51.92;30.95;;;;;;;28.63;44.64;101877.13;6031127;23;20022;-80
2023/10/08 10:43:09;;;;;;;42.80;29.25;;;;;;;28.28;43.47;101788.38;6054565;23;20025;-79
2023/10/08 10:45:36;;;;;;;45.40;28.63;;;;;;;28.89;43.54;101881.50;6051174;23;20027;-79
2023/10/08 10:53:57;;;;;;;38.28;26.35;;;;;;;29.25;43.73;101863.41;6042682;23;20057;-81
2023/10/08 10:56:32;;;;;;;40.60;26.33;;;;;;;29.48;42.58;101860.75;6059501;23;20023;-82
2023/10/08 10:59:27;;;;;;;45.38;26.45;;;;;;;29.52;42.13;101848.31;6071022;23;20022;-81
2023/10/08 11:02:39;;;;;;;43.83;27.48;;;;;;;29.69;42.07;101836.72;6043606;23;20355;-80
2023/10/08 11:04:51;;;;;;;38.25;26.27;;;;;;;29.75;42.01;101819.34;6034304;23;20298;-80
2023/10/08 11:07:21;;;;;;;51.63;27.40;;;;;;;29.93;42.28;101832.97;6057747;23;20023;-79
2023/10/08 11:09:59;;;;;;;42.65;28.20;;;;;;;30.19;40.49;101847.25;6034569;23;20026;-81
2023/10/08 11:12:42;;;;;;;40.20;26.35;;;;;;;30.14;40.69;101838.91;6067931;23;20022;-81
2023/10/08 11:15:15;;;;;;;42.97;26.30;;;;;;;30.17;41.19;101832.97;6033479;23;20304;-80
2023/10/08 11:17:48;;;;;;;43.22;26.42;;;;;;;30.14;40.98;101822.50;6039309;23;20022;-80
2023/10/08 11:20:32;;;;;;;50.75;28.77;;;;;;;29.65;40.28;101775.28;6053165;23;20336;-80
2023/10/08 11:23:17;;;;;;;45.20;27.83;;;;;;;29.68;41.23;101802.22;6024903;23;20109;-80
2023/10/08 11:26:05;;;;;;;46.65;28.15;;;;;;;29.62;41.63;101803.97;6049058;23;20026;-81
2023/10/08 11:28:42;;;;;;;42.65;28.45;;;;;;;29.61;41.51;101807.75;6038841;23;20105;-81
2023/10/08 11:31:14;;;;;;;42.00;28.33;;;;;;;28.67;41.70;101693.41;6056800;23;20348;-80
2023/10/08 11:33:42;;;;;;;43.88;26.60;;;;;;;29.06;42.70;101777.84;6048504;23;20081;-81
2023/10/08 11:36:18;;;;;;;44.50;26.88;;;;;;;29.20;43.02;101801.19;6055310;23;20029;-80
2023/10/08 11:38:50;;;;;;;40.75;25.92;;;;;;;29.06;43.22;101802.44;6037426;23;20207;-80
2023/10/08 11:41:20;;;;;;;46.72;26.02;;;;;;;29.06;42.56;101792.38;6063631;23;20023;-77
2023/10/08 11:43:57;;;;;;;40.13;25.83;;;;;;;29.07;42.64;101796.75;6054042;23;20454;-80
2023/10/08 11:46:27;;;;;;;39.58;24.20;;;;;;;28.92;43.00;101794.41;6054982;23;20458;-80
2023/10/08 11:48:58;;;;;;;34.83;22.17;;;;;;;28.95;43.17;101799.41;6047795;23;20390;-80
2023/10/08 11:51:25;;;;;;;41.35;25.00;;;;;;;28.91;42.69;101789.16;6055980;23;20266;-81
2023/10/08 11:54:00;;;;;;;43.25;25.25;;;;;;;28.87;42.43;101796.16;6014685;23;20030;-80
2023/10/08 11:56:33;;;;;;;40.97;22.70;;;;;;;28.55;43.10;101766.28;6023827;23;20026;-82
2023/10/08 11:59:09;;;;;;;41.85;25.80;;;;;;;28.66;43.10;101781.88;6032203;23;20049;-79
2023/10/08 12:01:42;;;;;;;39.95;24.92;;;;;;;28.59;43.08;101759.28;6053936;23;20251;-80
2023/10/08 12:04:15;;;;;;;44.53;25.30;;;;;;;28.64;42.47;101743.03;6070907;23;20042;-79
2023/10/08 12:06:46;;;;;;;40.67;24.75;;;;;;;28.93;42.27;101771.47;6035812;23;20034;-80
2023/10/08 12:09:14;;;;;;;43.42;26.60;;;;;;;28.70;42.66;101742.13;6052857;23;20077;-80
2023/10/08 12:11:42;;;;;;;37.38;24.95;;;;;;;28.58;42.41;101732.22;6052373;23;20042;-80
2023/10/08 12:14:10;;;;;;;37.78;25.05;;;;;;;28.83;41.92;101757.50;6053585;23;20335;-80
2023/10/08 12:16:45;;;;;;;35.28;22.77;;;;;;;28.66;41.33;101734.63;6039672;23;20460;-80
2023/10/08 12:19:15;;;;;;;39.85;23.67;;;;;;;28.64;42.42;101747.66;6060768;23;20062;-81
2023/10/08 12:21:46;;;;;;;42.03;22.70;;;;;;;28.02;42.26;101652.19;6063601;23;20034;-80
2023/10/08 12:24:17;;;;;;;37.85;21.40;;;;;;;28.64;41.47;101740.31;6071040;23;20670;-80
2023/10/08 12:26:49;;;;;;;42.13;21.42;;;;;;;28.05;41.37;101657.19;6021289;23;20022;-81
2023/10/08 12:29:25;;;;;;;35.83;22.35;;;;;;;28.34;41.66;101713.75;6034533;23;20237;-81